createdAt,value
2018-12-05T00:00:05.933Z,99806.56
2018-12-05T00:02:34.233Z,99808.45
2018-12-05T00:05:02.887Z,99805.30
2018-12-05T00:07:31.304Z,99800.08
2018-12-05T00:09:59.735Z,99803.09
2018-12-05T00:12:28.101Z,99800.61
2018-12-05T00:14:56.401Z,99802.11
2018-12-05T00:17:24.730Z,99797.23
2018-12-05T00:19:53.109Z,99795.52
2018-12-05T00:22:21.511Z,99795.64
2018-12-05T00:24:49.912Z,99790.86
2018-12-05T00:27:18.333Z,99798.59
2018-12-05T00:29:46.757Z,99804.03
2018-12-05T00:32:15.181Z,99802.89
2018-12-05T00:34:43.522Z,99803.93
2018-12-05T00:37:11.885Z,99803.87
2018-12-05T00:39:40.181Z,99802.20
2018-12-05T00:42:08.558Z,99797.88
2018-12-05T00:44:36.869Z,99800.84
2018-12-05T00:47:05.258Z,99801.04
2018-12-05T00:49:33.574Z,99804.64
2018-12-05T00:52:01.898Z,99796.16
2018-12-05T00:54:30.252Z,99798.37
2018-12-05T00:56:58.633Z,99801.58
2018-12-05T00:59:27.153Z,99798.52
2018-12-05T01:01:55.570Z,99800.52
2018-12-05T01:04:24.084Z,99802.91
2018-12-05T01:06:52.419Z,99803.65
2018-12-05T01:09:20.733Z,99802.61
2018-12-05T01:11:49.064Z,99789.41
2018-12-05T01:14:17.440Z,99792.03
2018-12-05T01:16:45.820Z,99795.84
2018-12-05T01:19:14.129Z,99796.19
2018-12-05T01:21:42.894Z,99803.01
2018-12-05T01:24:11.197Z,99803.90
2018-12-05T01:26:40.035Z,99808.26
2018-12-05T01:29:08.500Z,99809.98
2018-12-05T01:31:36.821Z,99810.50
2018-12-05T01:34:05.335Z,99821.06
2018-12-05T01:36:33.650Z,99823.22
2018-12-05T01:39:01.971Z,99826.44
2018-12-05T01:41:30.281Z,99826.22
2018-12-05T01:43:58.652Z,99819.81
2018-12-05T01:46:27.071Z,99820.09
2018-12-05T01:48:55.414Z,99822.91
2018-12-05T01:51:23.836Z,99818.47
2018-12-05T01:53:52.626Z,99819.07
2018-12-05T01:56:21.062Z,99814.44
2018-12-05T01:58:49.461Z,99813.16
2018-12-05T02:01:17.911Z,99822.76
2018-12-05T02:03:46.249Z,99814.64
2018-12-05T02:06:15.228Z,99814.27
2018-12-05T02:08:43.767Z,99819.80
2018-12-05T02:11:12.094Z,99823.52
2018-12-05T02:13:40.397Z,99821.48
2018-12-05T02:16:08.925Z,99828.72
2018-12-05T02:18:37.273Z,99837.67
2018-12-05T02:21:05.657Z,99834.84
2018-12-05T02:23:34.001Z,99832.31
2018-12-05T02:26:02.416Z,99830.09
2018-12-05T02:28:31.038Z,99832.32
2018-12-05T02:30:59.454Z,99838.61
2018-12-05T02:33:27.779Z,99829.98
2018-12-05T02:35:56.079Z,99832.20
2018-12-05T02:38:24.420Z,99826.95
2018-12-05T02:40:52.768Z,99837.70
2018-12-05T02:43:21.170Z,99837.68
2018-12-05T02:45:49.565Z,99843.98
2018-12-05T02:48:18.014Z,99837.70
2018-12-05T02:50:46.356Z,99841.30
2018-12-05T02:53:14.704Z,99836.92
2018-12-05T02:55:43.045Z,99840.50
2018-12-05T02:58:11.385Z,99839.73
2018-12-05T03:00:39.790Z,99853.67
2018-12-05T03:03:08.240Z,99845.83
2018-12-05T03:05:36.550Z,99850.09
2018-12-05T03:08:04.898Z,99850.59
2018-12-05T03:10:33.452Z,99842.63
2018-12-05T03:13:01.853Z,99850.69
2018-12-05T03:15:30.776Z,99852.83
2018-12-05T03:17:59.190Z,99848.73
2018-12-05T03:20:27.617Z,99841.91
2018-12-05T03:22:56.017Z,99846.86
2018-12-05T03:25:24.353Z,99842.63
2018-12-05T03:27:52.677Z,99830.86
2018-12-05T03:30:21.002Z,99833.26
2018-12-05T03:32:49.463Z,99828.77
2018-12-05T03:35:20.354Z,99831.19
2018-12-05T03:37:48.669Z,99839.01
2018-12-05T03:40:16.985Z,99835.61
2018-12-05T03:42:45.328Z,99840.98
2018-12-05T03:45:13.769Z,99832.66
2018-12-05T03:47:42.102Z,99839.95
2018-12-05T03:50:10.547Z,99838.18
2018-12-05T03:52:38.893Z,99840.48
2018-12-05T03:55:07.602Z,99837.65
2018-12-05T03:57:35.905Z,99843.81
2018-12-05T04:00:04.677Z,99845.30
2018-12-05T04:02:33.065Z,99839.45
2018-12-05T04:05:01.470Z,99832.75
2018-12-05T04:07:29.760Z,99829.92
2018-12-05T04:09:58.090Z,99831.03
2018-12-05T04:12:26.527Z,99835.92
2018-12-05T04:14:54.917Z,99842.64
2018-12-05T04:17:23.294Z,99844.05
2018-12-05T04:19:51.632Z,99844.01
2018-12-05T04:22:20.023Z,99846.61
2018-12-05T04:24:48.358Z,99845.50
2018-12-05T04:27:16.685Z,99843.44
2018-12-05T04:29:45.110Z,99837.94
2018-12-05T04:32:13.496Z,99835.25
2018-12-05T04:34:41.855Z,99841.35
2018-12-05T04:37:10.300Z,99845.03
2018-12-05T04:39:38.700Z,99841.17
2018-12-05T04:42:07.076Z,99849.42
2018-12-05T04:44:35.485Z,99853.45
2018-12-05T04:47:03.820Z,99845.80
2018-12-05T04:49:32.195Z,99851.61
2018-12-05T04:52:00.561Z,99853.06
2018-12-05T04:54:28.945Z,99847.58
2018-12-05T04:56:57.393Z,99849.11
2018-12-05T04:59:25.741Z,99849.41
2018-12-05T05:01:54.216Z,99857.05
2018-12-05T05:04:22.588Z,99850.02
2018-12-05T05:06:50.915Z,99852.31
2018-12-05T05:09:19.411Z,99838.11
2018-12-05T05:11:47.882Z,99839.27
2018-12-05T05:14:16.315Z,99841.89
2018-12-05T05:16:44.644Z,99849.56
2018-12-05T05:19:13.105Z,99846.84
2018-12-05T05:21:41.442Z,99857.02
2018-12-05T05:24:09.806Z,99855.70
2018-12-05T05:26:38.381Z,99852.29
2018-12-05T05:29:06.704Z,99855.92
2018-12-05T05:31:38.024Z,99853.42
2018-12-05T05:34:07.478Z,99846.34
2018-12-05T05:36:35.809Z,99837.92
2018-12-05T05:39:06.442Z,99840.00
2018-12-05T05:41:34.777Z,99846.05
2018-12-05T05:44:03.058Z,99843.27
2018-12-05T05:46:31.389Z,99850.35
2018-12-05T05:48:59.731Z,99853.42
2018-12-05T05:51:28.073Z,99856.30
2018-12-05T05:53:56.367Z,99860.69
2018-12-05T05:56:24.776Z,99852.69
2018-12-05T05:58:53.077Z,99840.59
2018-12-05T06:01:21.552Z,99843.02
2018-12-05T06:03:49.896Z,99847.72
2018-12-05T06:06:18.238Z,99846.59
2018-12-05T06:08:46.528Z,99841.77
2018-12-05T06:11:14.865Z,99839.46
2018-12-05T06:13:43.173Z,99844.98
2018-12-05T06:16:11.562Z,99847.00
2018-12-05T06:18:39.881Z,99854.11
2018-12-05T06:21:08.349Z,99847.80
2018-12-05T06:23:36.685Z,99857.91
2018-12-05T06:26:05.026Z,99853.88
2018-12-05T06:28:33.554Z,99851.92
2018-12-05T06:31:02.045Z,99858.70
2018-12-05T06:33:30.931Z,99869.42
2018-12-05T06:35:59.592Z,99865.53
2018-12-05T06:38:27.867Z,99864.76
2018-12-05T06:40:56.197Z,99870.17
2018-12-05T06:43:24.605Z,99863.37
2018-12-05T06:45:52.994Z,99864.59
2018-12-05T06:48:21.292Z,99870.14
2018-12-05T06:50:49.768Z,99873.83
2018-12-05T06:53:18.087Z,99872.79
2018-12-05T06:55:46.447Z,99864.97
2018-12-05T06:58:14.778Z,99868.52
2018-12-05T07:00:43.206Z,99877.67
2018-12-05T07:03:11.553Z,99877.84
2018-12-05T07:05:39.902Z,99877.23
2018-12-05T07:08:08.464Z,99880.25
2018-12-05T07:10:36.775Z,99880.30
2018-12-05T07:13:05.194Z,99884.80
2018-12-05T07:15:33.538Z,99886.55
2018-12-05T07:18:01.874Z,99888.15
2018-12-05T07:20:30.336Z,99887.79
2018-12-05T07:22:58.821Z,99884.59
2018-12-05T07:25:27.237Z,99883.69
2018-12-05T07:27:55.698Z,99894.05
2018-12-05T07:30:29.478Z,99902.63
2018-12-05T07:32:54.665Z,99891.96
2018-12-05T07:35:29.663Z,99890.91
2018-12-05T07:37:58.067Z,99896.00
2018-12-05T07:40:26.461Z,99886.54
2018-12-05T07:42:54.801Z,99876.95
2018-12-05T07:45:23.325Z,99877.10
2018-12-05T07:47:53.411Z,99876.09
2018-12-05T07:50:21.766Z,99868.08
2018-12-05T07:52:50.046Z,99877.42
2018-12-05T07:55:18.677Z,99876.94
2018-12-05T07:57:47.002Z,99875.41
2018-12-05T08:00:15.552Z,99880.83
2018-12-05T08:02:44.185Z,99877.42
2018-12-05T08:05:12.671Z,99876.98
2018-12-05T08:07:41.001Z,99875.27
2018-12-05T08:10:09.610Z,99872.53
2018-12-05T08:12:37.985Z,99872.39
2018-12-05T08:15:07.805Z,99867.97
2018-12-05T08:17:36.109Z,99861.55
2018-12-05T08:20:04.981Z,99857.31
2018-12-05T08:22:33.305Z,99855.09
2018-12-05T08:25:01.716Z,99852.56
2018-12-05T08:27:30.046Z,99848.31
2018-12-05T08:29:58.411Z,99848.91
2018-12-05T08:32:26.749Z,99849.31
2018-12-05T08:34:55.069Z,99853.63
2018-12-05T08:37:23.394Z,99847.20
2018-12-05T08:39:51.842Z,99846.09
2018-12-05T08:42:20.173Z,99848.98
2018-12-05T08:44:48.638Z,99845.14
2018-12-05T08:47:17.026Z,99850.25
2018-12-05T08:49:45.571Z,99847.23
2018-12-05T08:52:13.942Z,99844.50
2018-12-05T08:54:42.276Z,99847.67
2018-12-05T08:57:12.397Z,99844.12
2018-12-05T08:59:40.874Z,99847.42
2018-12-05T09:02:09.496Z,99847.95
2018-12-05T09:04:37.861Z,99848.95
2018-12-05T09:07:06.210Z,99851.00
2018-12-05T09:09:34.532Z,99853.38
2018-12-05T09:12:02.838Z,99857.89
2018-12-05T09:14:31.257Z,99856.60
2018-12-05T09:16:59.716Z,99857.64
2018-12-05T09:19:28.025Z,99855.85
2018-12-05T09:21:56.386Z,99848.37
2018-12-05T09:24:24.869Z,99848.26
2018-12-05T09:26:53.277Z,99843.75
2018-12-05T09:29:21.601Z,99849.92
2018-12-05T09:31:49.945Z,99851.67
2018-12-05T09:34:18.330Z,99837.33
2018-12-05T09:36:46.749Z,99839.99
2018-12-05T09:39:15.060Z,99844.30
2018-12-05T09:41:43.386Z,99845.23
2018-12-05T09:44:11.710Z,99845.73
2018-12-05T09:46:40.013Z,99839.17
2018-12-05T09:49:08.335Z,99836.69
2018-12-05T09:51:36.637Z,99833.91
2018-12-05T09:54:05.070Z,99830.50
2018-12-05T09:56:33.389Z,99839.59
2018-12-05T09:59:01.731Z,99838.09
2018-12-05T10:01:30.057Z,99837.69
2018-12-05T10:03:58.365Z,99823.66
2018-12-05T10:06:26.729Z,99822.45
2018-12-05T10:08:55.087Z,99823.05
2018-12-05T10:11:23.403Z,99819.13
2018-12-05T10:13:51.750Z,99813.64
2018-12-05T10:16:20.095Z,99814.82
2018-12-05T10:18:48.465Z,99814.56
2018-12-05T10:21:16.805Z,99805.14
2018-12-05T10:23:45.198Z,99812.95
2018-12-05T10:26:13.541Z,99814.80
2018-12-05T10:28:41.829Z,99810.91
2018-12-05T10:31:10.165Z,99802.28
2018-12-05T10:33:38.506Z,99803.41
2018-12-05T10:36:06.790Z,99794.64
2018-12-05T10:38:35.098Z,99790.49
2018-12-05T10:41:03.408Z,99787.75
2018-12-05T10:43:31.806Z,99780.89
2018-12-05T10:46:00.093Z,99770.55
2018-12-05T10:48:28.461Z,99771.80
2018-12-05T10:50:56.812Z,99772.34
2018-12-05T10:53:25.188Z,99762.86
2018-12-05T10:55:53.565Z,99755.14
2018-12-05T10:58:21.857Z,99755.58
2018-12-05T11:00:55.665Z,99744.00
2018-12-05T11:03:29.402Z,99743.01
2018-12-05T11:06:02.926Z,99751.88
2018-12-05T11:08:36.678Z,99747.21
2018-12-05T11:11:10.261Z,99741.18
2018-12-05T11:13:44.089Z,99732.80
2018-12-05T11:16:17.834Z,99737.23
2018-12-05T11:18:51.591Z,99741.99
2018-12-05T11:21:25.307Z,99736.92
2018-12-05T11:23:57.803Z,99733.45
2018-12-05T11:26:29.049Z,99725.27
2018-12-05T11:28:57.576Z,99721.18
2018-12-05T11:31:25.996Z,99718.69
2018-12-05T11:33:54.322Z,99707.74
2018-12-05T11:36:22.593Z,99715.73
2018-12-05T11:38:51.038Z,99714.61
2018-12-05T11:41:19.549Z,99706.42
2018-12-05T11:43:47.957Z,99706.03
2018-12-05T11:46:16.410Z,99704.64
2018-12-05T11:48:44.773Z,99694.01
2018-12-05T11:51:13.297Z,99690.44
2018-12-05T11:53:41.584Z,99686.80
2018-12-05T11:56:09.882Z,99692.39
2018-12-05T11:58:38.301Z,99688.19
2018-12-05T12:01:06.679Z,99680.91
2018-12-05T12:03:35.283Z,99681.11
2018-12-05T12:06:03.582Z,99676.14
2018-12-05T12:08:31.897Z,99671.98
2018-12-05T12:11:02.425Z,99678.45
2018-12-05T12:13:30.869Z,99668.44
2018-12-05T12:15:59.245Z,99667.45
2018-12-05T12:18:27.521Z,99662.14
2018-12-05T12:20:55.834Z,99651.45
2018-12-05T12:23:24.197Z,99655.80
2018-12-05T12:25:52.626Z,99648.00
2018-12-05T12:28:21.106Z,99643.91
2018-12-05T12:30:49.546Z,99642.87
2018-12-05T12:33:17.979Z,99636.19
2018-12-05T12:35:46.354Z,99634.41
2018-12-05T12:38:14.703Z,99633.24
2018-12-05T12:40:43.047Z,99634.34
2018-12-05T12:43:11.546Z,99633.42
2018-12-05T12:45:40.246Z,99631.92
2018-12-05T12:48:08.766Z,99639.31
2018-12-05T12:50:37.203Z,99634.26
2018-12-05T12:53:05.614Z,99620.36
2018-12-05T12:55:34.126Z,99627.42
2018-12-05T12:58:02.496Z,99618.72
2018-12-05T13:00:30.752Z,99618.09
2018-12-05T13:02:59.119Z,99611.66
2018-12-05T13:05:27.901Z,99616.25
2018-12-05T13:07:56.247Z,99601.56
2018-12-05T13:10:24.585Z,99601.38
2018-12-05T13:12:54.374Z,99589.11
2018-12-05T13:15:23.599Z,99586.80
2018-12-05T13:17:52.027Z,99586.80
2018-12-05T13:20:20.308Z,99576.47
2018-12-05T13:22:48.650Z,99580.59
2018-12-05T13:25:17.024Z,99578.26
2018-12-05T13:27:45.385Z,99570.48
2018-12-05T13:30:13.882Z,99571.03
2018-12-05T13:32:42.242Z,99569.63
2018-12-05T13:35:10.528Z,99562.26
2018-12-05T13:37:38.834Z,99558.60
2018-12-05T13:40:07.513Z,99551.86
2018-12-05T13:42:35.855Z,99553.34
2018-12-05T13:45:04.389Z,99550.92
2018-12-05T13:47:32.764Z,99543.78
2018-12-05T13:50:01.150Z,99550.15
2018-12-05T13:52:29.473Z,99544.41
2018-12-05T13:54:57.749Z,99539.42
2018-12-05T13:57:26.020Z,99540.20
2018-12-05T13:59:54.345Z,99541.14
2018-12-05T14:02:22.754Z,99534.70
2018-12-05T14:04:51.256Z,99538.86
2018-12-05T14:07:19.603Z,99536.00
2018-12-05T14:09:47.939Z,99532.28
2018-12-05T14:12:21.738Z,99528.64
2018-12-05T14:14:50.128Z,99527.14
2018-12-05T14:17:18.624Z,99525.52
2018-12-05T14:19:46.922Z,99523.42
2018-12-05T14:22:15.225Z,99513.19
2018-12-05T14:24:43.630Z,99519.63
2018-12-05T14:27:11.892Z,99524.75
2018-12-05T14:29:40.381Z,99517.05
2018-12-05T14:32:08.748Z,99515.02
2018-12-05T14:34:37.305Z,99511.77
2018-12-05T14:37:06.139Z,99504.02
2018-12-05T14:39:34.582Z,99505.95
2018-12-05T14:42:02.980Z,99505.11
2018-12-05T14:44:31.295Z,99503.22
2018-12-05T14:46:59.740Z,99502.36
2018-12-05T14:49:28.245Z,99498.71
2018-12-05T14:51:56.689Z,99500.12
2018-12-05T14:54:25.047Z,99505.24
2018-12-05T14:56:53.631Z,99497.45
2018-12-05T14:59:22.301Z,99497.99
2018-12-05T15:01:50.785Z,99503.03
2018-12-05T15:04:19.088Z,99506.68
2018-12-05T15:06:47.588Z,99495.12
2018-12-05T15:09:16.037Z,99496.98
2018-12-05T15:11:44.314Z,99499.16
2018-12-05T15:14:12.628Z,99499.23
2018-12-05T15:16:41.185Z,99493.73
2018-12-05T15:19:09.651Z,99486.12
2018-12-05T15:21:37.948Z,99480.93
2018-12-05T15:24:06.508Z,99477.48
2018-12-05T15:26:34.933Z,99487.26
2018-12-05T15:29:03.389Z,99481.59
2018-12-05T15:31:31.789Z,99474.42
2018-12-05T15:34:00.230Z,99472.75
2018-12-05T15:36:28.589Z,99469.16
2018-12-05T15:38:56.897Z,99461.78
2018-12-05T15:41:25.281Z,99475.58
2018-12-05T15:43:53.804Z,99465.81
2018-12-05T15:46:22.155Z,99461.98
2018-12-05T15:48:50.473Z,99454.91
2018-12-05T15:51:18.929Z,99457.31
2018-12-05T15:53:47.228Z,99450.72
2018-12-05T15:56:15.533Z,99453.36
2018-12-05T15:58:43.891Z,99445.02
2018-12-05T16:01:12.193Z,99436.58
2018-12-05T16:03:43.280Z,99431.92
2018-12-05T16:06:11.023Z,99423.55
2018-12-05T16:08:39.321Z,99418.66
2018-12-05T16:11:07.764Z,99420.77
2018-12-05T16:13:36.096Z,99413.33
2018-12-05T16:16:04.600Z,99412.36
2018-12-05T16:18:32.998Z,99410.54
2018-12-05T16:21:01.335Z,99412.02
2018-12-05T16:23:29.696Z,99404.26
2018-12-05T16:25:58.094Z,99405.89
2018-12-05T16:28:26.453Z,99399.22
2018-12-05T16:30:54.814Z,99390.00
2018-12-05T16:33:23.277Z,99392.64
2018-12-05T16:35:51.633Z,99398.41
2018-12-05T16:38:19.910Z,99389.81
2018-12-05T16:40:48.273Z,99379.27
2018-12-05T16:43:16.537Z,99373.61
2018-12-05T16:45:45.049Z,99372.79
2018-12-05T16:48:13.427Z,99371.83
2018-12-05T16:50:41.802Z,99368.03
2018-12-05T16:53:10.070Z,99371.47
2018-12-05T16:55:38.376Z,99365.66
2018-12-05T16:58:06.648Z,99364.88
2018-12-05T17:00:35.163Z,99349.22
2018-12-05T17:03:03.460Z,99346.42
2018-12-05T17:05:31.910Z,99351.53
2018-12-05T17:08:00.248Z,99349.14
2018-12-05T17:10:28.561Z,99346.83
2018-12-05T17:12:56.925Z,99348.15
2018-12-05T17:15:25.408Z,99345.03
2018-12-05T17:17:53.936Z,99341.38
2018-12-05T17:20:22.417Z,99335.64
2018-12-05T17:22:50.740Z,99335.44
2018-12-05T17:25:19.329Z,99331.16
2018-12-05T17:27:47.642Z,99330.85
2018-12-05T17:30:15.966Z,99325.80
2018-12-05T17:32:44.514Z,99316.73
2018-12-05T17:35:12.997Z,99313.86
2018-12-05T17:37:41.387Z,99304.08
2018-12-05T17:40:09.874Z,99311.77
2018-12-05T17:42:38.189Z,99296.94
2018-12-05T17:45:06.681Z,99299.52
2018-12-05T17:47:35.041Z,99286.42
2018-12-05T17:50:04.065Z,99293.39
2018-12-05T17:52:32.605Z,99286.11
2018-12-05T17:55:01.089Z,99284.94
2018-12-05T17:57:29.405Z,99284.86
2018-12-05T17:59:57.734Z,99279.41
2018-12-05T18:02:26.092Z,99276.31
2018-12-05T18:04:54.369Z,99266.09
2018-12-05T18:07:23.027Z,99256.41
2018-12-05T18:09:51.342Z,99257.77
2018-12-05T18:12:19.766Z,99253.98
2018-12-05T18:14:48.161Z,99250.11
2018-12-05T18:17:16.518Z,99246.28
2018-12-05T18:19:44.908Z,99242.58
2018-12-05T18:22:13.404Z,99236.72
2018-12-05T18:24:42.084Z,99236.58
2018-12-05T18:27:10.457Z,99237.99
2018-12-05T18:29:38.810Z,99232.33
2018-12-05T18:32:07.190Z,99223.74
2018-12-05T18:34:35.659Z,99224.98
2018-12-05T18:37:04.094Z,99214.72
2018-12-05T18:39:32.385Z,99200.36
2018-12-05T18:42:00.802Z,99204.20
2018-12-05T18:44:29.102Z,99206.63
2018-12-05T18:46:57.594Z,99199.31
2018-12-05T18:49:26.222Z,99189.24
2018-12-05T18:51:54.791Z,99191.10
2018-12-05T18:54:26.104Z,99183.45
2018-12-05T18:56:54.932Z,99178.30
2018-12-05T18:59:23.378Z,99185.53
2018-12-05T19:01:51.812Z,99180.34
2018-12-05T19:04:20.186Z,99173.03
2018-12-05T19:06:48.502Z,99178.77
2018-12-05T19:09:16.897Z,99175.28
2018-12-05T19:11:45.897Z,99169.79
2018-12-05T19:14:20.198Z,99171.70
2018-12-05T19:16:48.778Z,99169.15
2018-12-05T19:19:17.957Z,99158.42
2018-12-05T19:21:47.278Z,99159.57
2018-12-05T19:24:16.555Z,99158.81
2018-12-05T19:26:45.778Z,99152.39
2018-12-05T19:29:15.657Z,99154.09
2018-12-05T19:31:44.206Z,99148.67
2018-12-05T19:34:12.598Z,99144.27
2018-12-05T19:36:41.106Z,99139.58
2018-12-05T19:39:09.738Z,99138.11
2018-12-05T19:41:38.284Z,99139.29
2018-12-05T19:44:07.370Z,99135.19
2018-12-05T19:46:35.978Z,99134.25
2018-12-05T19:49:04.787Z,99136.12
2018-12-05T19:51:34.376Z,99139.14
2018-12-05T19:54:02.919Z,99135.27
2018-12-05T19:56:31.294Z,99138.11
2018-12-05T19:59:00.099Z,99135.33
2018-12-05T20:01:29.186Z,99126.48
2018-12-05T20:03:59.125Z,99120.44
2018-12-05T20:06:27.568Z,99117.53
2018-12-05T20:08:56.704Z,99117.16
2018-12-05T20:11:31.456Z,99113.11
2018-12-05T20:14:01.302Z,99115.48
2018-12-05T20:16:33.159Z,99110.34
2018-12-05T20:19:04.426Z,99113.74
2018-12-05T20:21:38.227Z,99109.94
2018-12-05T20:24:06.814Z,99102.66
2018-12-05T20:26:35.182Z,99102.80
2018-12-05T20:29:03.583Z,99102.58
2018-12-05T20:31:32.106Z,99096.07
2018-12-05T20:34:00.621Z,99097.68
2018-12-05T20:36:29.021Z,99093.52
2018-12-05T20:38:57.936Z,99088.33
2018-12-05T20:41:32.405Z,99087.59
2018-12-05T20:43:57.557Z,99089.56
2018-12-05T20:46:26.242Z,99081.73
2018-12-05T20:48:54.869Z,99076.95
2018-12-05T20:51:23.521Z,99073.91
2018-12-05T20:53:52.113Z,99075.80
2018-12-05T20:56:20.533Z,99070.53
2018-12-05T20:58:48.905Z,99066.19
2018-12-05T21:01:17.298Z,99068.05
2018-12-05T21:03:46.169Z,99061.75
2018-12-05T21:06:14.729Z,99056.33
2018-12-05T21:08:43.216Z,99052.05
2018-12-05T21:11:12.179Z,99048.83
2018-12-05T21:13:42.730Z,99046.23
2018-12-05T21:16:11.598Z,99042.23
2018-12-05T21:18:40.145Z,99046.77
2018-12-05T21:21:08.670Z,99034.79
2018-12-05T21:23:37.192Z,99040.28
2018-12-05T21:26:06.404Z,99032.39
2018-12-05T21:31:34.897Z,99021.98
2018-12-05T21:34:03.321Z,99017.84
2018-12-05T21:36:33.621Z,99021.14
2018-12-05T21:39:13.526Z,99013.14
2018-12-05T21:41:42.368Z,99011.39
2018-12-05T21:44:10.902Z,99003.66
2018-12-05T21:46:39.553Z,99006.39
2018-12-05T21:49:08.047Z,99004.14
2018-12-05T21:51:36.446Z,99003.86
2018-12-05T21:54:05.438Z,98997.44
2018-12-05T21:56:34.219Z,98988.20
2018-12-05T21:59:02.612Z,98987.45
2018-12-05T22:01:30.989Z,98986.33
2018-12-05T22:03:59.431Z,98986.70
2018-12-05T22:06:27.809Z,98994.62
2018-12-05T22:08:56.999Z,98992.77
2018-12-05T22:11:25.581Z,98995.28
2018-12-05T22:13:54.326Z,98996.88
2018-12-05T22:16:22.756Z,98991.60
2018-12-05T22:18:51.751Z,98990.79
2018-12-05T22:21:20.140Z,98984.38
2018-12-05T22:23:48.640Z,98990.88
2018-12-05T22:26:17.081Z,98988.05
2018-12-05T22:28:45.405Z,98984.94
2018-12-05T22:31:13.736Z,98989.21
2018-12-05T22:33:42.168Z,98981.83
2018-12-05T22:36:10.707Z,98971.64
2018-12-05T22:38:39.183Z,98973.37
2018-12-05T22:41:07.887Z,98965.17
2018-12-05T22:43:36.517Z,98965.92
2018-12-05T22:46:05.213Z,98965.45
2018-12-05T22:48:34.967Z,98964.87
2018-12-05T22:51:03.393Z,98963.84
2018-12-05T22:53:32.029Z,98961.48
2018-12-05T22:56:00.378Z,98949.31
2018-12-05T22:58:28.862Z,98953.75
2018-12-05T23:00:58.821Z,98944.21
2018-12-05T23:03:27.232Z,98937.80
2018-12-05T23:05:55.709Z,98943.94
2018-12-05T23:08:24.125Z,98945.83
2018-12-05T23:10:52.425Z,98942.42
2018-12-05T23:13:21.116Z,98943.46
2018-12-05T23:15:49.489Z,98939.89
2018-12-05T23:18:17.947Z,98935.83
2018-12-05T23:20:46.265Z,98927.72
2018-12-05T23:23:14.567Z,98929.03
2018-12-05T23:25:43.140Z,98927.81
2018-12-05T23:28:11.522Z,98919.42
2018-12-05T23:30:39.825Z,98927.52
2018-12-05T23:33:08.220Z,98922.06
2018-12-05T23:35:36.485Z,98910.73
2018-12-05T23:38:04.945Z,98908.30
2018-12-05T23:40:33.452Z,98914.04
2018-12-05T23:43:01.775Z,98911.87
2018-12-05T23:45:30.113Z,98900.73
2018-12-05T23:47:58.561Z,98904.89
2018-12-05T23:50:26.941Z,98897.84
2018-12-05T23:52:55.226Z,98903.77
2018-12-05T23:55:23.614Z,98889.44
2018-12-05T23:57:51.991Z,98885.58
